Kelly, Kansas
Current Conditions -  °F | °C
As of 2:53 PM on Saturday 25 Oct 2014 (Local Time) from KFNB Reporting Station
Clear Clear  
Wind Chill: 78°   Ceiling: Unl
Heat Index: 78°   Visibility: 10mi
Dew Point: 47°   Wind: 6mph
Humidity: 33%   Direction: 60°ENE
Pressure: 30.04"   Gusts: NA
Location:  39.8497°N, 96.0411°W
Report Text: KFNB 251953Z AUTO 06005KT 10SM CLR 26/08 A3004 RMK AO2 SLP165 T02560083
Loading
Personal Weather Stations






























Interactive Weather Map New forecast layout! Learn more

10-Day Weather Forecast

Advertisements
Track Severe Weather on mobile